createdAt,value
2019-05-18T00:00:26.924Z,30.67
2019-05-18T00:02:54.908Z,32.37
2019-05-18T00:05:23.000Z,29.57
2019-05-18T00:07:51.007Z,33.63
2019-05-18T00:10:19.542Z,33.87
2019-05-18T00:12:47.499Z,32.50
2019-05-18T00:15:15.576Z,33.77
2019-05-18T00:17:43.404Z,29.70
2019-05-18T00:20:11.742Z,31.87
2019-05-18T00:22:39.619Z,30.57
2019-05-18T00:25:09.502Z,29.63
2019-05-18T00:27:37.486Z,26.73
2019-05-18T00:30:06.084Z,28.07
2019-05-18T00:32:33.997Z,28.70
2019-05-18T00:35:03.898Z,28.90
2019-05-18T00:37:31.910Z,32.90
2019-05-18T00:40:00.528Z,44.33
2019-05-18T00:42:28.375Z,36.37
2019-05-18T00:44:57.418Z,31.90
2019-05-18T00:47:40.054Z,28.30
2019-05-18T00:49:54.940Z,34.07
2019-05-18T00:52:23.025Z,28.17
2019-05-18T00:54:51.059Z,31.07
2019-05-18T00:57:19.182Z,30.63
2019-05-18T00:59:47.434Z,25.60
2019-05-18T01:02:15.378Z,32.90
2019-05-18T01:04:43.176Z,38.27
2019-05-18T01:07:11.061Z,32.60
2019-05-18T01:09:39.615Z,33.43
2019-05-18T01:12:07.539Z,34.60
2019-05-18T01:14:35.332Z,32.90
2019-05-18T01:17:03.590Z,35.77
2019-05-18T01:19:31.594Z,35.00
2019-05-18T01:21:59.665Z,32.43
2019-05-18T01:24:27.744Z,28.73
2019-05-18T01:26:55.732Z,31.53
2019-05-18T01:29:24.915Z,34.20
2019-05-18T01:31:53.024Z,30.43
2019-05-18T01:34:21.157Z,34.10
2019-05-18T01:36:49.147Z,36.07
2019-05-18T01:39:17.021Z,38.70
2019-05-18T01:41:44.980Z,37.80
2019-05-18T01:44:13.280Z,41.87
2019-05-18T01:46:43.652Z,33.97
2019-05-18T01:49:15.721Z,31.47
2019-05-18T01:51:44.051Z,25.50
2019-05-18T01:54:11.941Z,24.70
2019-05-18T01:56:39.984Z,28.33
2019-05-18T01:59:07.913Z,38.00
2019-05-18T02:01:35.893Z,37.47
2019-05-18T02:04:04.414Z,34.17
2019-05-18T02:06:32.197Z,29.27
2019-05-18T02:09:00.185Z,40.87
2019-05-18T02:11:28.154Z,39.13
2019-05-18T02:13:56.112Z,35.30
2019-05-18T02:16:25.661Z,29.20
2019-05-18T02:18:55.400Z,32.13
2019-05-18T02:21:23.287Z,28.97
2019-05-18T02:23:51.207Z,32.20
2019-05-18T02:26:18.998Z,28.53
2019-05-18T02:28:51.555Z,31.07
2019-05-18T02:31:22.241Z,31.00
2019-05-18T02:33:50.382Z,29.73
2019-05-18T02:36:18.734Z,32.00
2019-05-18T02:38:47.105Z,29.33
2019-05-18T02:41:16.448Z,30.70
2019-05-18T02:43:44.800Z,34.13
2019-05-18T02:46:13.218Z,30.93
2019-05-18T02:48:49.727Z,34.30
2019-05-18T02:51:12.052Z,29.83
2019-05-18T02:53:49.978Z,38.27
2019-05-18T02:56:19.812Z,40.07
2019-05-18T02:58:47.629Z,40.07
2019-05-18T03:01:17.264Z,40.07
2019-05-18T03:03:45.327Z,42.80
2019-05-18T03:06:13.999Z,42.53
2019-05-18T03:08:51.628Z,39.60
2019-05-18T03:11:19.702Z,40.00
2019-05-18T03:13:47.733Z,37.27
2019-05-18T03:16:15.698Z,38.97
2019-05-18T03:18:43.712Z,41.47
2019-05-18T03:21:11.949Z,40.80
2019-05-18T03:23:39.706Z,36.00
2019-05-18T03:26:07.698Z,39.17
2019-05-18T03:28:36.037Z,37.77
2019-05-18T03:31:03.983Z,39.40
2019-05-18T03:33:32.241Z,36.97
2019-05-18T03:36:01.530Z,41.60
2019-05-18T03:38:29.985Z,40.80
2019-05-18T03:40:57.989Z,41.33
2019-05-18T03:43:26.023Z,43.50
2019-05-18T03:45:54.543Z,38.27
2019-05-18T03:48:22.518Z,36.90
2019-05-18T03:50:50.380Z,38.43
2019-05-18T03:53:18.603Z,39.90
2019-05-18T03:55:46.553Z,38.00
2019-05-18T03:58:14.843Z,35.97
2019-05-18T04:00:43.411Z,37.80
2019-05-18T04:03:11.511Z,36.43
2019-05-18T04:05:39.797Z,40.10
2019-05-18T04:08:07.722Z,37.13
2019-05-18T04:10:35.653Z,37.77
2019-05-18T04:13:03.496Z,35.90
2019-05-18T04:15:31.289Z,34.30
2019-05-18T04:17:59.137Z,34.30
2019-05-18T04:20:28.305Z,35.07
2019-05-18T04:22:56.217Z,33.73
2019-05-18T04:25:24.046Z,38.57
2019-05-18T04:27:51.949Z,44.13
2019-05-18T04:30:20.067Z,48.07
2019-05-18T04:32:50.275Z,48.90
2019-05-18T04:35:20.889Z,46.63
2019-05-18T04:37:48.959Z,42.13
2019-05-18T04:40:37.853Z,45.47
2019-05-18T04:43:12.347Z,49.03
2019-05-18T04:45:44.151Z,44.70
2019-05-18T04:48:27.030Z,40.70
2019-05-18T04:50:56.472Z,34.60
2019-05-18T04:53:26.401Z,31.37
2019-05-18T04:55:54.087Z,26.77
2019-05-18T04:58:22.048Z,29.47
2019-05-18T05:00:49.812Z,30.03
2019-05-18T05:03:17.562Z,47.50
2019-05-18T05:05:55.836Z,26.83
2019-05-18T05:08:24.416Z,25.50
2019-05-18T05:10:52.070Z,26.77
2019-05-18T05:13:20.382Z,26.80
2019-05-18T05:15:54.105Z,17.93
2019-05-18T05:18:21.700Z,19.93
2019-05-18T05:20:49.310Z,15.07
2019-05-18T05:23:17.184Z,14.67
2019-05-18T05:25:44.984Z,17.53
2019-05-18T05:28:12.714Z,17.77
2019-05-18T05:30:40.810Z,15.03
2019-05-18T05:33:12.282Z,16.03
2019-05-18T05:35:42.778Z,16.03
2019-05-18T05:38:10.750Z,16.57
2019-05-18T05:40:38.875Z,18.00
2019-05-18T05:43:06.661Z,16.93
2019-05-18T05:45:34.601Z,18.33
2019-05-18T05:48:03.325Z,17.17
2019-05-18T05:50:36.329Z,15.47
2019-05-18T05:53:03.809Z,20.27
2019-05-18T05:55:31.711Z,24.97
2019-05-18T05:57:59.478Z,22.57
2019-05-18T06:00:29.885Z,17.23
2019-05-18T06:02:59.317Z,15.83
2019-05-18T06:05:37.267Z,17.40
2019-05-18T06:07:59.705Z,16.53
2019-05-18T06:10:27.498Z,18.37
2019-05-18T06:12:55.266Z,21.53
2019-05-18T06:15:23.098Z,19.20
2019-05-18T06:17:51.186Z,19.33
2019-05-18T06:20:18.917Z,20.97
2019-05-18T06:22:46.627Z,20.87
2019-05-18T06:25:15.166Z,22.93
2019-05-18T06:27:42.900Z,18.23
2019-05-18T06:30:10.802Z,22.30
2019-05-18T06:32:38.786Z,18.73
2019-05-18T06:35:07.117Z,22.50
2019-05-18T06:37:35.002Z,19.70
2019-05-18T06:40:02.977Z,19.50
2019-05-18T06:42:32.693Z,21.73
2019-05-18T06:45:09.307Z,22.83
2019-05-18T06:47:36.955Z,19.57
2019-05-18T06:50:04.588Z,24.93
2019-05-18T06:52:32.537Z,24.20
2019-05-18T06:55:00.801Z,22.27
2019-05-18T06:57:29.748Z,20.43
2019-05-18T06:59:58.569Z,24.97
2019-05-18T07:02:26.295Z,23.73
2019-05-18T07:04:53.935Z,21.57
2019-05-18T07:07:21.672Z,22.60
2019-05-18T07:09:49.506Z,23.17
2019-05-18T07:12:17.152Z,20.97
2019-05-18T07:14:44.841Z,24.67
2019-05-18T07:17:12.869Z,21.63
2019-05-18T07:19:40.580Z,21.53
2019-05-18T07:22:08.273Z,20.97
2019-05-18T07:24:35.946Z,20.97
2019-05-18T07:27:04.023Z,21.57
2019-05-18T07:29:31.753Z,22.73
2019-05-18T07:31:59.845Z,26.97
2019-05-18T07:34:27.663Z,29.27
2019-05-18T07:36:55.911Z,25.80
2019-05-18T07:39:23.849Z,26.17
2019-05-18T07:41:51.512Z,24.97
2019-05-18T07:44:19.285Z,28.27
2019-05-18T07:46:47.463Z,30.63
2019-05-18T07:49:15.186Z,33.03
2019-05-18T07:51:42.849Z,30.27
2019-05-18T07:54:10.565Z,29.73
2019-05-18T07:56:39.711Z,27.70
2019-05-18T07:59:08.593Z,28.70
2019-05-18T08:01:36.642Z,32.90
2019-05-18T08:04:07.734Z,30.53
2019-05-18T08:06:35.464Z,37.50
2019-05-18T08:09:04.768Z,26.20
2019-05-18T08:11:32.384Z,22.43
2019-05-18T08:14:00.101Z,27.03
2019-05-18T08:16:27.692Z,21.27
2019-05-18T08:18:58.029Z,25.93
2019-05-18T08:21:24.794Z,22.50
2019-05-18T08:23:52.475Z,24.93
2019-05-18T08:26:20.107Z,24.30
2019-05-18T08:28:47.674Z,32.43
2019-05-18T08:31:15.377Z,26.57
2019-05-18T08:33:42.977Z,25.00
2019-05-18T08:36:10.568Z,24.03
2019-05-18T08:38:38.059Z,22.97
2019-05-18T08:41:05.605Z,27.27
2019-05-18T08:43:33.252Z,22.80
2019-05-18T08:46:00.836Z,23.13
2019-05-18T08:48:28.505Z,23.23
2019-05-18T08:50:56.166Z,22.23
2019-05-18T08:53:23.801Z,20.17
2019-05-18T08:55:51.790Z,21.97
2019-05-18T08:58:19.636Z,19.40
2019-05-18T09:00:47.317Z,18.10
2019-05-18T09:03:15.260Z,19.40
2019-05-18T09:05:42.917Z,17.77
2019-05-18T09:08:10.513Z,19.40
2019-05-18T09:10:38.008Z,19.23
2019-05-18T09:13:05.528Z,18.33
2019-05-18T09:15:33.140Z,18.57
2019-05-18T09:18:04.995Z,16.33
2019-05-18T09:20:32.866Z,16.00
2019-05-18T09:23:00.488Z,16.57
2019-05-18T09:25:28.062Z,13.03
2019-05-18T09:27:55.707Z,12.53
2019-05-18T09:30:23.245Z,13.73
2019-05-18T09:32:51.096Z,14.20
2019-05-18T09:35:19.215Z,12.50
2019-05-18T09:37:46.875Z,12.63
2019-05-18T09:40:15.114Z,12.33
2019-05-18T09:42:42.943Z,10.47
2019-05-18T09:45:11.722Z,10.40
2019-05-18T09:47:39.352Z,11.00
2019-05-18T09:50:07.945Z,10.47
2019-05-18T09:52:44.835Z,8.93
2019-05-18T09:55:06.257Z,9.50
2019-05-18T09:57:34.812Z,8.10
2019-05-18T10:00:14.018Z,8.50
2019-05-18T10:02:44.149Z,8.53
2019-05-18T10:05:14.385Z,9.57
2019-05-18T10:07:42.776Z,10.63
2019-05-18T10:10:10.966Z,10.43
2019-05-18T10:12:38.605Z,13.27
2019-05-18T10:15:06.658Z,13.03
2019-05-18T10:17:34.287Z,13.73
2019-05-18T10:20:02.283Z,14.00
2019-05-18T10:22:30.034Z,14.83
2019-05-18T10:24:57.977Z,14.77
2019-05-18T10:27:25.808Z,14.30
2019-05-18T10:29:53.660Z,14.20
2019-05-18T10:32:21.571Z,13.87
2019-05-18T10:34:49.330Z,14.03
2019-05-18T10:37:17.469Z,14.10
2019-05-18T10:39:45.588Z,14.30
2019-05-18T10:42:13.451Z,14.57
2019-05-18T10:44:41.770Z,14.20
2019-05-18T10:47:09.528Z,15.73
2019-05-18T10:49:37.186Z,14.07
2019-05-18T10:52:05.061Z,14.47
2019-05-18T10:54:32.765Z,13.80
2019-05-18T10:57:04.206Z,13.40
2019-05-18T10:59:31.933Z,13.80
2019-05-18T11:01:59.567Z,13.37
2019-05-18T11:04:27.244Z,13.37
2019-05-18T11:07:04.773Z,12.50
2019-05-18T11:09:32.553Z,12.40
2019-05-18T11:12:00.276Z,13.73
2019-05-18T11:14:28.267Z,14.17
2019-05-18T11:16:56.203Z,13.47
2019-05-18T11:19:23.998Z,13.17
2019-05-18T11:21:51.889Z,14.70
2019-05-18T11:24:19.868Z,14.10
2019-05-18T11:26:53.663Z,12.93
2019-05-18T11:29:23.245Z,13.93
2019-05-18T11:31:51.187Z,14.27
2019-05-18T11:34:19.294Z,14.37
2019-05-18T11:36:46.850Z,14.00
2019-05-18T11:39:23.601Z,14.13
2019-05-18T11:41:47.829Z,15.23
2019-05-18T11:44:15.727Z,15.53
2019-05-18T11:46:44.806Z,14.80
2019-05-18T11:49:15.186Z,15.13
2019-05-18T11:51:42.830Z,14.63
2019-05-18T11:54:10.703Z,15.57
2019-05-18T11:56:38.677Z,15.60
2019-05-18T11:59:06.298Z,16.40
2019-05-18T12:01:34.342Z,15.30
2019-05-18T12:04:02.248Z,16.70
2019-05-18T12:06:29.996Z,16.33
2019-05-18T12:08:58.753Z,15.33
2019-05-18T12:11:26.482Z,16.30
2019-05-18T12:13:54.131Z,14.93
2019-05-18T12:16:21.910Z,15.67
2019-05-18T12:18:49.988Z,15.67
2019-05-18T12:21:17.776Z,15.53
2019-05-18T12:23:45.574Z,18.20
2019-05-18T12:26:13.245Z,16.27
2019-05-18T12:28:41.011Z,15.70
2019-05-18T12:31:08.714Z,15.27
2019-05-18T12:33:36.713Z,13.97
2019-05-18T12:36:06.138Z,15.00
2019-05-18T12:38:33.870Z,15.00
2019-05-18T12:41:03.011Z,14.53
2019-05-18T12:43:30.745Z,14.10
2019-05-18T12:45:58.513Z,14.27
2019-05-18T12:48:26.320Z,14.33
2019-05-18T12:50:54.004Z,13.00
2019-05-18T12:53:21.802Z,13.63
2019-05-18T12:55:49.545Z,13.73
2019-05-18T12:58:17.298Z,12.90
2019-05-18T13:00:44.944Z,13.20
2019-05-18T13:03:12.752Z,13.50
2019-05-18T13:05:40.757Z,11.63
2019-05-18T13:08:08.509Z,11.07
2019-05-18T13:10:36.366Z,10.97
2019-05-18T13:13:04.074Z,10.90
2019-05-18T13:15:31.870Z,10.53
2019-05-18T13:17:59.506Z,11.80
2019-05-18T13:20:27.078Z,11.57
2019-05-18T13:22:54.858Z,11.37
2019-05-18T13:25:22.869Z,10.80
2019-05-18T13:27:50.785Z,11.90
2019-05-18T13:30:19.845Z,11.67
2019-05-18T13:32:47.911Z,11.90
2019-05-18T13:35:17.858Z,11.90
2019-05-18T13:37:45.786Z,12.60
2019-05-18T13:40:14.141Z,12.83
2019-05-18T13:42:41.789Z,12.57
2019-05-18T13:45:09.860Z,11.83
2019-05-18T13:47:37.704Z,10.57
2019-05-18T13:50:05.987Z,10.93
2019-05-18T13:52:33.893Z,10.30
2019-05-18T13:55:04.468Z,9.77
2019-05-18T13:57:31.161Z,10.40
2019-05-18T13:59:58.867Z,10.27
2019-05-18T14:02:26.719Z,10.90
2019-05-18T14:04:54.647Z,10.83
2019-05-18T14:07:23.454Z,9.98
2019-05-18T14:09:51.218Z,10.63
2019-05-18T14:12:18.851Z,11.00
2019-05-18T14:14:46.407Z,10.25
2019-05-18T14:17:14.101Z,10.60
2019-05-18T14:19:41.772Z,9.05
2019-05-18T14:22:09.957Z,9.33
2019-05-18T14:24:37.572Z,9.48
2019-05-18T14:27:05.223Z,9.15
2019-05-18T14:29:32.908Z,8.70
2019-05-18T14:32:02.003Z,8.60
2019-05-18T14:34:29.746Z,8.53
2019-05-18T14:36:58.062Z,8.80
2019-05-18T14:39:25.794Z,9.18
2019-05-18T14:41:53.660Z,8.75
2019-05-18T14:44:21.952Z,8.48
2019-05-18T14:46:52.409Z,9.23
2019-05-18T14:49:20.288Z,9.38
2019-05-18T14:51:49.321Z,9.43
2019-05-18T14:54:17.268Z,9.40
2019-05-18T14:56:45.471Z,9.50
2019-05-18T14:59:13.421Z,9.23
2019-05-18T15:01:41.282Z,8.80
2019-05-18T15:04:09.129Z,9.23
2019-05-18T15:06:37.022Z,9.18
2019-05-18T15:09:05.965Z,8.70
2019-05-18T15:11:34.238Z,8.85
2019-05-18T15:14:02.496Z,8.93
2019-05-18T15:16:30.371Z,9.85
2019-05-18T15:19:00.271Z,8.43
2019-05-18T15:21:28.138Z,8.60
2019-05-18T15:23:56.044Z,7.83
2019-05-18T15:26:23.996Z,8.78
2019-05-18T15:28:51.966Z,7.75
2019-05-18T15:31:19.788Z,8.85
2019-05-18T15:33:53.814Z,7.40
2019-05-18T15:36:21.865Z,9.00
2019-05-18T15:38:50.526Z,9.18
2019-05-18T15:41:18.421Z,9.73
2019-05-18T15:43:46.346Z,10.73
2019-05-18T15:46:14.632Z,10.47
2019-05-18T15:48:52.066Z,12.33
2019-05-18T15:51:24.518Z,8.10
2019-05-18T15:54:01.099Z,6.87
2019-05-18T15:56:30.997Z,7.33
2019-05-18T15:58:58.931Z,6.70
2019-05-18T16:01:29.224Z,6.97
2019-05-18T16:03:57.005Z,8.03
2019-05-18T16:06:27.966Z,7.63
2019-05-18T16:09:01.738Z,7.13
2019-05-18T16:11:29.796Z,7.00
2019-05-18T16:13:57.839Z,7.40
2019-05-18T16:16:25.765Z,7.90
2019-05-18T16:18:56.842Z,7.63
2019-05-18T16:21:29.485Z,7.50
2019-05-18T16:23:59.949Z,8.53
2019-05-18T16:26:32.144Z,7.83
2019-05-18T16:29:00.873Z,8.43
2019-05-18T16:31:34.726Z,8.60
2019-05-18T16:34:03.449Z,9.10
2019-05-18T16:36:33.606Z,8.33
2019-05-18T16:39:06.316Z,8.80
2019-05-18T16:41:35.001Z,8.60
2019-05-18T16:44:02.742Z,8.93
2019-05-18T16:46:30.917Z,8.50
2019-05-18T16:48:58.678Z,10.43
2019-05-18T16:51:30.597Z,9.67
2019-05-18T16:54:18.742Z,8.47
2019-05-18T16:56:47.080Z,9.03
2019-05-18T16:59:17.915Z,8.90
2019-05-18T17:01:46.993Z,10.30
2019-05-18T17:04:15.937Z,9.63
2019-05-18T17:06:52.907Z,10.23
2019-05-18T17:09:21.487Z,10.47
2019-05-18T17:11:52.862Z,10.27
2019-05-18T17:16:50.874Z,10.37
2019-05-18T17:19:18.890Z,10.47
2019-05-18T17:22:03.507Z,12.23
2019-05-18T17:24:32.941Z,11.07
2019-05-18T17:27:00.977Z,10.97
2019-05-18T17:29:28.987Z,10.67
2019-05-18T17:31:57.317Z,11.70
2019-05-18T17:34:25.320Z,13.57
2019-05-18T17:36:57.474Z,11.80
2019-05-18T17:39:27.692Z,12.50
2019-05-18T17:41:55.810Z,11.20
2019-05-18T17:44:23.879Z,11.47
2019-05-18T17:46:54.208Z,11.47
2019-05-18T17:49:26.890Z,11.90
2019-05-18T17:52:11.216Z,11.40
2019-05-18T17:54:39.796Z,12.33
2019-05-18T17:57:09.270Z,11.60
2019-05-18T17:59:43.925Z,11.97
2019-05-18T18:02:12.556Z,13.57
2019-05-18T18:04:40.405Z,12.50
2019-05-18T18:07:15.026Z,12.53
2019-05-18T18:09:43.282Z,12.93
2019-05-18T18:12:15.862Z,11.47
2019-05-18T18:14:44.341Z,12.77
2019-05-18T18:17:13.746Z,12.90
2019-05-18T18:19:44.737Z,13.17
2019-05-18T18:22:14.923Z,13.93
2019-05-18T18:24:49.207Z,14.30
2019-05-18T18:27:25.298Z,14.97
2019-05-18T18:29:51.997Z,15.13
2019-05-18T18:32:27.710Z,14.60
2019-05-18T18:34:55.853Z,15.83
2019-05-18T18:37:31.081Z,15.50
2019-05-18T18:40:03.857Z,15.67
2019-05-18T18:42:38.153Z,15.83
2019-05-18T18:45:11.721Z,16.63
2019-05-18T18:47:49.082Z,16.77
2019-05-18T18:50:17.725Z,16.77
2019-05-18T18:52:52.442Z,16.77
2019-05-18T18:55:28.700Z,17.27
2019-05-18T18:58:05.447Z,18.43
2019-05-18T19:00:42.894Z,18.27
2019-05-18T19:03:13.286Z,19.33
2019-05-18T19:05:45.845Z,18.63
2019-05-18T19:08:20.361Z,18.27
2019-05-18T19:10:50.423Z,19.03
2019-05-18T19:13:20.449Z,19.10
2019-05-18T19:15:55.747Z,19.70
2019-05-18T19:18:27.734Z,19.77
2019-05-18T19:20:55.973Z,19.80
2019-05-18T19:23:31.569Z,20.23
2019-05-18T19:25:57.103Z,18.43
2019-05-18T19:28:25.346Z,18.40
2019-05-18T19:30:56.600Z,20.57
2019-05-18T19:33:24.749Z,19.67
2019-05-18T19:35:52.932Z,19.80
2019-05-18T19:38:20.963Z,19.60
2019-05-18T19:40:49.616Z,18.43
2019-05-18T19:43:17.804Z,18.97
2019-05-18T19:45:46.144Z,19.30
2019-05-18T19:48:36.880Z,19.73
2019-05-18T19:51:08.646Z,19.00
2019-05-18T19:53:41.806Z,19.20
2019-05-18T19:56:13.419Z,20.07
2019-05-18T19:58:44.833Z,19.60
2019-05-18T20:01:13.146Z,20.57
2019-05-18T20:03:41.432Z,20.57
2019-05-18T20:06:11.297Z,21.40
2019-05-18T20:08:40.153Z,19.67
2019-05-18T20:11:08.737Z,20.13
2019-05-18T20:13:38.879Z,22.77
2019-05-18T20:16:06.992Z,21.83
2019-05-18T20:18:37.400Z,22.20
2019-05-18T20:21:06.386Z,23.80
2019-05-18T20:23:34.623Z,23.23
2019-05-18T20:26:03.333Z,23.50
2019-05-18T20:28:31.872Z,21.53
2019-05-18T20:31:00.109Z,21.50
2019-05-18T20:33:28.793Z,21.80
2019-05-18T20:35:57.769Z,20.47
2019-05-18T20:38:25.734Z,19.97
2019-05-18T20:40:53.598Z,19.37
2019-05-18T20:43:21.526Z,20.17
2019-05-18T20:45:49.337Z,18.83
2019-05-18T20:48:22.229Z,19.07
2019-05-18T20:50:50.385Z,18.13
2019-05-18T20:53:21.478Z,17.07
2019-05-18T20:55:53.105Z,18.43
2019-05-18T20:58:39.443Z,16.37
2019-05-18T21:01:24.608Z,16.70
2019-05-18T21:03:55.176Z,16.80
2019-05-18T21:06:23.914Z,17.17
2019-05-18T21:08:52.668Z,16.30
2019-05-18T21:11:20.837Z,16.63
2019-05-18T21:14:07.689Z,16.47
2019-05-18T21:16:36.015Z,15.30
2019-05-18T21:19:11.116Z,15.70
2019-05-18T21:21:38.916Z,15.90
2019-05-18T21:24:07.436Z,16.07
2019-05-18T21:26:37.814Z,17.90
2019-05-18T21:29:05.916Z,16.00
2019-05-18T21:31:34.571Z,15.93
2019-05-18T21:34:02.742Z,15.90
2019-05-18T21:36:31.470Z,16.00
2019-05-18T21:38:59.711Z,16.10
2019-05-18T21:41:30.368Z,17.17
2019-05-18T21:44:01.114Z,14.67
2019-05-18T21:46:30.957Z,14.77
2019-05-18T21:48:58.848Z,15.60
2019-05-18T21:51:26.756Z,15.83
2019-05-18T21:53:54.520Z,17.37
2019-05-18T21:56:27.169Z,16.03
2019-05-18T21:59:10.157Z,16.23
2019-05-18T22:01:25.196Z,15.50
2019-05-18T22:04:00.095Z,14.27
2019-05-18T22:07:02.792Z,14.77
2019-05-18T22:09:32.495Z,13.60
2019-05-18T22:14:38.153Z,13.10
2019-05-18T22:17:16.910Z,12.23
2019-05-18T22:20:02.691Z,11.80
2019-05-18T22:22:33.805Z,12.40
2019-05-18T22:25:04.437Z,11.90
2019-05-18T22:32:58.068Z,12.13
2019-05-18T22:35:23.290Z,11.73
2019-05-18T22:37:51.077Z,14.40
2019-05-18T22:40:39.820Z,11.27
2019-05-18T22:43:08.231Z,11.73
2019-05-18T22:45:37.601Z,11.50
2019-05-18T22:48:08.155Z,14.67
2019-05-18T22:50:36.106Z,11.73
2019-05-18T22:53:13.356Z,12.00
2019-05-18T22:55:43.602Z,11.23
2019-05-18T22:58:11.598Z,11.33
2019-05-18T23:00:39.413Z,11.70
2019-05-18T23:03:07.954Z,11.20
2019-05-18T23:05:38.425Z,11.53
2019-05-18T23:11:10.462Z,12.87
2019-05-18T23:13:39.035Z,12.43
2019-05-18T23:16:08.405Z,12.53
2019-05-18T23:18:36.545Z,11.63
2019-05-18T23:21:25.323Z,11.50
2019-05-18T23:23:54.211Z,11.53
2019-05-18T23:26:22.291Z,13.07
2019-05-18T23:28:50.057Z,12.20
2019-05-18T23:31:18.080Z,12.43
2019-05-18T23:33:45.992Z,12.50
2019-05-18T23:36:49.520Z,12.17
2019-05-18T23:39:22.378Z,11.70
2019-05-18T23:41:51.619Z,12.67
2019-05-18T23:44:30.469Z,12.60
2019-05-18T23:47:07.834Z,13.13
2019-05-18T23:49:35.758Z,12.63
2019-05-18T23:52:05.167Z,12.43
2019-05-18T23:54:44.926Z,11.93
2019-05-18T23:57:26.706Z,12.77
